In Rescue
 
Open Full Screen Window  High Contrast Mode
Wind Gusting 00 knots
04
October 25, 2021 4:15 PM EDT
Weather Information
Wind Direction
  090 °
Wind Speed
  04 kt (5 mph)
Wind Gust
  00 kt (0 mph)
Altimeter
30.02 in
Visibility
10 SM
Temperature
06° C
43° F
Dewpoint
05° C
41° F
Humidity
93%
Sky Condition
Overcast @ 3,500 ft
Broken @ 2,500 ft
Scattered @ 1,300 ft
MVFR

METAR KEFK 252015Z AUTO 09004KT 10SM SCT013 BKN025 OVC035 06/05 A3002 RMK AO2 T00580045

FAA Disclaimer: The data displayed is for advisory purposes only and is not to be used for flight planning or operations.